Dades de l'estació automàtica Palafrugell
Resum diari
15:30 TU| Temperatura mitjana | 26.2 °C | |
|---|---|---|
| Temperatura màxima | 35.0 °C | 11:45 TU |
| Temperatura mínima | 17.3 °C | 4:45 TU |
| Humitat relativa mitjana | 66% | |
| Precipitació acumulada | 0.0 mm | |
| Ratxa màxima del vent (10 m) | 25.9 km/h - 95º | 12:40 TU |
| Irradiació solar global | 19.8 MJ/m2 | |
El tram horari està expressat en Temps Universal (TU). Cal sumar una hora en horari d'hivern i dues en horari d'estiu per passar a l'hora oficial.
Palafrugell
| Municipi | Palafrugell |
|---|---|
| Comarca | Baix Empordà |
| Altitud | 35 m |
| Data alta | 02.12.2021 |
| Estat actual | Operativa |
| Període TU |
TM °C |
TX °C |
TN °C |
HRM % |
PPT mm |
VVM (10 m) km/h |
DVM (10 m) graus |
VVX (10 m) km/h |
RS W/m2 |
|---|---|---|---|---|---|---|---|---|---|
| 00:00 - 00:30 | 19.1 | 19.3 | 18.8 | 98 | 0.0 | 0.7 | 146 | 4.0 | 0 |
| 00:30 - 01:00 | 18.9 | 19.0 | 18.6 | 98 | 0.0 | 0.0 | 113 | 1.1 | 0 |
| 01:00 - 01:30 | 18.7 | 19.0 | 18.5 | 98 | 0.0 | 1.4 | 167 | 4.0 | 0 |
| 01:30 - 02:00 | 18.6 | 18.9 | 18.4 | 98 | 0.0 | 0.0 | 135 | 1.4 | 0 |
| 02:00 - 02:30 | 18.3 | 18.6 | 18.0 | 98 | 0.0 | 0.4 | 135 | 2.5 | 0 |
| 02:30 - 03:00 | 18.0 | 18.1 | 17.9 | 98 | 0.0 | 0.4 | 195 | 3.2 | 0 |
| 03:00 - 03:30 | 17.8 | 18.1 | 17.3 | 98 | 0.0 | 1.1 | 181 | 3.6 | 0 |
| 03:30 - 04:00 | 17.7 | 18.2 | 17.5 | 98 | 0.0 | 0.0 | 194 | 1.1 | 0 |
| 04:00 - 04:30 | 17.8 | 18.0 | 17.7 | 98 | 0.0 | 0.7 | 81 | 2.5 | 0 |
| 04:30 - 05:00 | 17.7 | 18.0 | 17.3 | 98 | 0.0 | 1.4 | 117 | 5.8 | 0 |
| 05:00 - 05:30 | 17.7 | 18.2 | 17.4 | 98 | 0.0 | 0.7 | 86 | 4.0 | 3 |
| 05:30 - 06:00 | 18.0 | 18.5 | 17.7 | 98 | 0.0 | 0.7 | 78 | 3.2 | 38 |
| 06:00 - 06:30 | 19.4 | 20.5 | 18.5 | 99 | 0.0 | 0.7 | 133 | 4.0 | 114 |
| 06:30 - 07:00 | 21.1 | 22.3 | 20.5 | 97 | 0.0 | 0.7 | 69 | 2.9 | 157 |
| 07:00 - 07:30 | 24.9 | 26.3 | 22.5 | 79 | 0.0 | 0.4 | 166 | 2.5 | 234 |
| 07:30 - 08:00 | 29.0 | 30.8 | 26.4 | 60 | 0.0 | 0.4 | 134 | 3.6 | 341 |
| 08:00 - 08:30 | 31.0 | 31.8 | 30.5 | 51 | 0.0 | 2.9 | 84 | 8.3 | 408 |
| 08:30 - 09:00 | 31.6 | 31.8 | 31.3 | 50 | 0.0 | 5.4 | 150 | 13.0 | 539 |
| 09:00 - 09:30 | 31.8 | 32.3 | 31.4 | 52 | 0.0 | 6.8 | 137 | 14.0 | 606 |
| 09:30 - 10:00 | 32.7 | 33.6 | 32.1 | 47 | 0.0 | 4.7 | 99 | 18.7 | 667 |
| 10:00 - 10:30 | 34.0 | 34.3 | 33.5 | 28 | 0.0 | 11.2 | 26 | 20.9 | 720 |
| 10:30 - 11:00 | 34.2 | 34.5 | 34.0 | 26 | 0.0 | 13.7 | 37 | 25.6 | 756 |
| 11:00 - 11:30 | 34.5 | 34.8 | 34.2 | 25 | 0.0 | 13.0 | 36 | 24.8 | 781 |
| 11:30 - 12:00 | 34.6 | 35.0 | 34.3 | 25 | 0.0 | 12.2 | 61 | 24.1 | 788 |
| 12:00 - 12:30 | 34.3 | 34.8 | 33.7 | 28 | 0.0 | 14.4 | 81 | 25.2 | 784 |
| 12:30 - 13:00 | 33.7 | 34.0 | 32.8 | 33 | 0.0 | 14.0 | 101 | 25.9 | 768 |
| 13:00 - 13:30 | 32.5 | 33.1 | 32.0 | 40 | 0.0 | 11.9 | 128 | 23.8 | 719 |
| 13:30 - 14:00 | 32.3 | 32.9 | 31.9 | 40 | 0.0 | 9.7 | 160 | 19.4 | 630 |
| 14:00 - 14:30 | 32.5 | 32.9 | 32.0 | 36 | 0.0 | 9.0 | 148 | 15.5 | 581 |
| 14:30 - 15:00 | 32.6 | 33.1 | 31.7 | 34 | 0.0 | 10.8 | 164 | 20.2 | 527 |
| 15:00 - 15:30 | 31.9 | 32.3 | 31.6 | 35 | 0.0 | 13.0 | 192 | 21.2 | 461 |
| 15:30 - 16:00 | 31.9 | 32.2 | 31.5 | 38 | 0.0 | 11.5 | 193 | 18.4 | 384 |
Les dades en taronja només han passat un control de qualitat automàtic. Resta pendent la seva validació definitiva.